Time;durP1;ratioP1;P1;durP2;ratioP2;P2;SDS_P1;SDS_P2;PMS_P1;PMS_P2;Temp;Humidity;BMP_temperature;BMP_pressure;BME280_temperature;BME280_humidity;BME280_pressure;Samples;Min_cycle;Max_cycle;Signal;HPM_P1;HPM_P2
2021/03/29 00:01:49;;;;;;;8.35;4.88;;;9.30;87.80;;;;;;5012786;28;20049;-63
2021/03/29 00:04:14;;;;;;;13.15;5.60;;;9.40;87.80;;;;;;5012677;28;20157;-63
2021/03/29 00:06:41;;;;;;;9.52;4.75;;;9.30;87.80;;;;;;5013243;28;20056;-63
2021/03/29 00:09:08;;;;;;;11.95;4.85;;;9.40;87.70;;;;;;5012889;28;20077;-65
2021/03/29 00:11:35;;;;;;;9.13;4.28;;;9.30;87.60;;;;;;5012371;28;20410;-64
2021/03/29 00:14:02;;;;;;;9.85;4.63;;;9.40;87.80;;;;;;5012856;28;20466;-66
2021/03/29 00:16:31;;;;;;;8.73;4.80;;;9.30;87.90;;;;;;5013108;28;20028;-65
2021/03/29 00:18:57;;;;;;;11.63;5.18;;;9.30;87.90;;;;;;5011940;28;20009;-65
2021/03/29 00:21:22;;;;;;;8.85;4.90;;;9.30;87.90;;;;;;5012955;28;20084;-62
2021/03/29 00:23:48;;;;;;;13.70;5.20;;;9.20;88.00;;;;;;5012739;28;20393;-64
2021/03/29 00:26:14;;;;;;;11.27;4.75;;;9.20;88.10;;;;;;5012327;28;20474;-65
2021/03/29 00:28:40;;;;;;;9.95;5.50;;;9.10;88.20;;;;;;5012844;28;20038;-64
2021/03/29 00:31:08;;;;;;;14.05;5.55;;;9.10;88.30;;;;;;5012533;28;20032;-64
2021/03/29 00:33:36;;;;;;;9.55;4.97;;;9.10;88.20;;;;;;5012336;28;20049;-63
2021/03/29 00:36:02;;;;;;;11.65;4.88;;;9.10;88.10;;;;;;5012506;28;20436;-63
2021/03/29 00:38:29;;;;;;;10.52;5.47;;;9.10;88.10;;;;;;5012166;28;20033;-63
2021/03/29 00:40:59;;;;;;;8.98;4.78;;;9.10;88.00;;;;;;5012431;28;20097;-63
2021/03/29 00:43:33;;;;;;;8.38;4.40;;;9.10;88.20;;;;;;5013009;28;20101;-63
2021/03/29 00:46:01;;;;;;;7.95;4.25;;;9.10;88.60;;;;;;5011042;28;20046;-64
2021/03/29 00:48:29;;;;;;;10.55;5.00;;;9.10;88.20;;;;;;5012738;28;20034;-64
2021/03/29 00:51:08;;;;;;;8.15;3.95;;;9.10;88.40;;;;;;5012328;28;20022;-65
2021/03/29 00:53:35;;;;;;;10.45;4.95;;;9.00;88.40;;;;;;5012210;28;20421;-64
2021/03/29 00:56:03;;;;;;;13.23;5.18;;;9.00;88.50;;;;;;5012562;28;20023;-63
2021/03/29 00:58:30;;;;;;;7.30;4.60;;;9.00;88.60;;;;;;5012791;28;20108;-63
2021/03/29 01:01:00;;;;;;;10.35;4.55;;;9.00;88.40;;;;;;5011455;28;20050;-63
2021/03/29 01:03:29;;;;;;;13.48;5.55;;;9.00;88.50;;;;;;5012639;28;20045;-64
2021/03/29 01:06:00;;;;;;;8.82;4.20;;;9.00;88.60;;;;;;5012187;28;20026;-64
2021/03/29 01:08:26;;;;;;;17.08;4.80;;;8.90;88.50;;;;;;5012112;28;20038;-63
2021/03/29 01:10:53;;;;;;;14.35;5.00;;;8.90;88.50;;;;;;5012336;28;20022;-65
2021/03/29 01:13:20;;;;;;;9.13;4.38;;;8.90;88.50;;;;;;5012924;28;20385;-63
2021/03/29 01:15:48;;;;;;;14.95;5.00;;;8.90;88.50;;;;;;5011921;28;20053;-63
2021/03/29 01:18:17;;;;;;;9.30;4.65;;;8.90;88.40;;;;;;5012345;28;20495;-63
2021/03/29 01:21:06;;;;;;;12.82;5.22;;;8.90;88.50;;;;;;5011785;28;20117;-64
2021/03/29 01:23:33;;;;;;;13.57;4.90;;;8.90;88.70;;;;;;5012540;28;20093;-64
2021/03/29 01:26:04;;;;;;;14.07;5.18;;;8.90;88.80;;;;;;5010945;28;20029;-65
2021/03/29 01:28:30;;;;;;;12.63;5.53;;;8.90;88.90;;;;;;5011723;28;20037;-64
2021/03/29 01:30:55;;;;;;;13.02;4.68;;;8.80;88.80;;;;;;5011869;28;20429;-64
2021/03/29 01:33:22;;;;;;;14.52;4.72;;;8.80;89.00;;;;;;5012623;28;20030;-64
2021/03/29 01:35:52;;;;;;;10.55;4.32;;;8.80;89.10;;;;;;5011420;28;20081;-65
2021/03/29 01:38:19;;;;;;;11.10;4.85;;;8.80;89.10;;;;;;5012374;28;20057;-64
2021/03/29 01:40:46;;;;;;;10.18;4.68;;;8.80;89.20;;;;;;5012256;28;20022;-66
2021/03/29 01:43:13;;;;;;;10.93;4.78;;;8.80;89.30;;;;;;5011580;28;20025;-64
2021/03/29 01:45:40;;;;;;;13.95;5.03;;;8.90;89.30;;;;;;5012137;28;20018;-64
2021/03/29 01:48:07;;;;;;;13.10;4.75;;;8.90;89.00;;;;;;5011791;28;20037;-64
2021/03/29 01:50:36;;;;;;;13.60;5.93;;;9.00;88.70;;;;;;5010141;28;20018;-64
2021/03/29 01:53:04;;;;;;;10.60;4.70;;;9.10;88.30;;;;;;5011774;28;20018;-64
2021/03/29 01:55:31;;;;;;;10.63;4.97;;;9.20;88.10;;;;;;5012276;28;20036;-64
2021/03/29 01:57:58;;;;;;;14.77;4.65;;;9.20;88.00;;;;;;5014147;28;20026;-64
2021/03/29 02:00:31;;;;;;;10.60;5.32;;;9.20;87.90;;;;;;5015444;28;20049;-64
2021/03/29 02:02:59;;;;;;;11.60;4.97;;;9.30;87.60;;;;;;5014496;28;20022;-64
2021/03/29 02:05:25;;;;;;;15.02;4.70;;;9.30;87.30;;;;;;5015436;28;20394;-65
2021/03/29 02:07:51;;;;;;;8.48;4.32;;;9.40;87.10;;;;;;5014922;28;20502;-65
2021/03/29 02:10:20;;;;;;;10.73;4.65;;;9.40;87.10;;;;;;5014658;28;20033;-64
2021/03/29 02:12:46;;;;;;;11.70;4.75;;;9.40;86.90;;;;;;5014982;28;20030;-64
2021/03/29 02:15:15;;;;;;;10.85;4.50;;;9.40;86.80;;;;;;5015469;28;20493;-63
2021/03/29 02:17:42;;;;;;;11.77;5.55;;;9.40;86.70;;;;;;5014825;28;20069;-64
2021/03/29 02:20:18;;;;;;;10.32;4.30;;;9.40;86.60;;;;;;5014868;28;20026;-63
2021/03/29 02:22:52;;;;;;;15.65;4.82;;;9.40;86.50;;;;;;5015281;28;20072;-63
2021/03/29 02:25:19;;;;;;;10.70;5.32;;;9.40;86.50;;;;;;5014486;28;20025;-63
2021/03/29 02:27:47;;;;;;;11.25;5.43;;;9.50;86.40;;;;;;5015043;28;20569;-63
2021/03/29 02:30:15;;;;;;;11.25;5.15;;;9.50;86.40;;;;;;5014911;28;20076;-64
2021/03/29 02:32:46;;;;;;;11.35;5.07;;;9.50;86.40;;;;;;5014544;28;20478;-64
2021/03/29 02:35:13;;;;;;;11.25;4.65;;;9.50;86.30;;;;;;5014824;28;20463;-64
2021/03/29 02:37:43;;;;;;;10.85;4.50;;;9.40;86.30;;;;;;5015118;28;20021;-64
2021/03/29 02:40:10;;;;;;;10.27;4.90;;;9.40;86.50;;;;;;5013845;28;20052;-63
2021/03/29 02:42:36;;;;;;;10.93;4.68;;;9.40;86.60;;;;;;5014793;28;20029;-64
2021/03/29 02:45:05;;;;;;;11.10;5.03;;;9.30;86.70;;;;;;5013755;28;20105;-64
2021/03/29 02:47:32;;;;;;;16.10;4.90;;;9.30;86.80;;;;;;5013450;28;20121;-63
2021/03/29 02:50:00;;;;;;;11.13;4.63;;;9.30;86.80;;;;;;5014272;28;20092;-63
2021/03/29 02:52:27;;;;;;;14.52;4.65;;;9.20;86.90;;;;;;5013950;28;20513;-63
2021/03/29 02:54:53;;;;;;;7.53;4.05;;;9.20;87.00;;;;;;5014062;28;20029;-64
2021/03/29 02:57:20;;;;;;;10.07;4.53;;;9.20;87.20;;;;;;5014649;28;20033;-64
2021/03/29 02:59:46;;;;;;;10.85;5.22;;;9.10;87.20;;;;;;5013422;28;20022;-63
2021/03/29 03:02:13;;;;;;;12.60;4.47;;;9.10;87.20;;;;;;5014519;28;20516;-64
2021/03/29 03:04:40;;;;;;;10.57;5.20;;;9.10;87.20;;;;;;5013325;28;20370;-64
2021/03/29 03:07:06;;;;;;;10.68;4.75;;;9.10;87.30;;;;;;5013252;28;20026;-63
2021/03/29 03:09:33;;;;;;;12.27;5.07;;;9.10;87.20;;;;;;5012296;28;20034;-65
2021/03/29 03:11:59;;;;;;;11.93;5.07;;;9.10;87.20;;;;;;5013810;28;20101;-63
2021/03/29 03:14:25;;;;;;;9.77;4.85;;;9.10;87.20;;;;;;5013775;28;20030;-64
2021/03/29 03:16:51;;;;;;;13.82;5.40;;;9.10;87.30;;;;;;5013849;28;20033;-64
2021/03/29 03:19:18;;;;;;;14.95;5.65;;;9.10;87.20;;;;;;5014052;28;20029;-64
2021/03/29 03:21:44;;;;;;;10.50;5.68;;;9.00;87.20;;;;;;5013552;28;20037;-65
2021/03/29 03:24:10;;;;;;;9.30;5.50;;;9.00;87.10;;;;;;5013761;28;20034;-66
2021/03/29 03:26:36;;;;;;;9.52;5.65;;;9.00;87.10;;;;;;5013910;28;20441;-64
2021/03/29 03:29:03;;;;;;;16.90;7.43;;;9.00;87.20;;;;;;5012863;28;20121;-65
2021/03/29 03:31:29;;;;;;;15.20;6.57;;;9.00;87.20;;;;;;5013871;28;20493;-65
2021/03/29 03:33:55;;;;;;;15.10;7.38;;;9.00;87.30;;;;;;5012418;28;20117;-66
2021/03/29 03:36:23;;;;;;;15.50;7.18;;;8.90;87.40;;;;;;5013454;28;20022;-65
2021/03/29 03:38:51;;;;;;;18.10;8.18;;;8.90;87.50;;;;;;5013692;28;20026;-65
2021/03/29 03:41:33;;;;;;;15.00;8.43;;;8.90;87.50;;;;;;5013269;28;20021;-64
2021/03/29 03:44:01;;;;;;;13.32;6.97;;;8.90;87.60;;;;;;5013392;28;20374;-65
2021/03/29 03:46:29;;;;;;;14.07;7.72;;;8.90;87.50;;;;;;5013796;28;20041;-65
2021/03/29 03:49:03;;;;;;;13.20;7.05;;;8.90;87.50;;;;;;5012515;28;20037;-64
2021/03/29 03:51:29;;;;;;;14.85;7.63;;;8.90;87.60;;;;;;5013865;28;20022;-65
2021/03/29 03:53:54;;;;;;;15.32;7.97;;;8.80;87.70;;;;;;5013290;28;20033;-64
2021/03/29 03:56:21;;;;;;;17.67;7.95;;;8.80;87.90;;;;;;5013082;28;20104;-66
2021/03/29 03:58:47;;;;;;;14.55;7.55;;;8.70;87.90;;;;;;5011825;28;20029;-64
2021/03/29 04:01:14;;;;;;;12.48;7.30;;;8.70;88.00;;;;;;5013190;28;20085;-64
2021/03/29 04:03:39;;;;;;;14.65;7.32;;;8.70;88.10;;;;;;5012773;28;20029;-65
2021/03/29 04:06:05;;;;;;;12.52;6.68;;;8.70;88.30;;;;;;5012900;28;20022;-64
2021/03/29 04:08:31;;;;;;;17.45;6.57;;;8.70;88.40;;;;;;5013055;28;20539;-63
2021/03/29 04:10:59;;;;;;;11.80;5.97;;;8.70;88.40;;;;;;5012357;28;20022;-63
2021/03/29 04:13:28;;;;;;;16.92;7.65;;;8.70;88.20;;;;;;5013305;28;20049;-63
2021/03/29 04:15:56;;;;;;;14.48;6.63;;;8.80;88.20;;;;;;5011470;28;20029;-63
2021/03/29 04:18:22;;;;;;;12.25;6.30;;;8.90;88.10;;;;;;5012556;28;20022;-64
2021/03/29 04:20:48;;;;;;;10.40;6.47;;;8.90;88.20;;;;;;5011938;28;20041;-63
2021/03/29 04:23:14;;;;;;;12.55;5.97;;;8.90;88.00;;;;;;5013074;28;20033;-64
2021/03/29 04:25:40;;;;;;;11.88;6.57;;;8.90;87.90;;;;;;5012603;28;20459;-64
2021/03/29 04:28:06;;;;;;;11.07;5.60;;;8.90;87.90;;;;;;5011493;28;20037;-64
2021/03/29 04:30:32;;;;;;;11.52;6.03;;;8.90;88.00;;;;;;5012213;28;20180;-65
2021/03/29 04:32:57;;;;;;;8.85;5.07;;;8.90;88.10;;;;;;5012584;28;20030;-66
2021/03/29 04:35:24;;;;;;;14.15;5.07;;;8.90;88.10;;;;;;5012987;28;20363;-65
2021/03/29 04:37:51;;;;;;;13.02;5.82;;;8.90;88.10;;;;;;5011838;28;20026;-63
2021/03/29 04:40:18;;;;;;;9.05;5.38;;;8.80;88.10;;;;;;5012900;28;20033;-63
2021/03/29 04:42:44;;;;;;;11.50;4.70;;;8.80;88.30;;;;;;5013016;28;20018;-63
2021/03/29 04:45:10;;;;;;;10.90;5.50;;;8.80;88.30;;;;;;5011887;28;20367;-63
2021/03/29 04:47:35;;;;;;;12.68;5.05;;;8.80;88.30;;;;;;5012963;28;20033;-63
2021/03/29 04:50:02;;;;;;;12.52;5.57;;;8.80;88.40;;;;;;5012434;28;20030;-63
2021/03/29 04:52:27;;;;;;;13.10;4.45;;;8.80;88.50;;;;;;5011932;28;20014;-64
2021/03/29 04:54:53;;;;;;;9.38;4.32;;;8.80;88.50;;;;;;5012521;28;20053;-63
2021/03/29 04:57:18;;;;;;;11.98;4.82;;;8.80;88.50;;;;;;5011835;28;20057;-63
2021/03/29 04:59:44;;;;;;;8.60;4.80;;;8.80;88.40;;;;;;5003617;28;20478;-63
2021/03/29 05:02:10;;;;;;;10.07;4.75;;;8.80;88.50;;;;;;4992537;28;20050;-62
2021/03/29 05:04:36;;;;;;;10.68;4.38;;;8.80;88.40;;;;;;5002749;28;20032;-62
2021/03/29 05:07:07;;;;;;;9.55;4.55;;;8.80;88.40;;;;;;5011598;28;20018;-63
2021/03/29 05:09:33;;;;;;;8.68;4.10;;;8.80;88.40;;;;;;5012544;28;20378;-63
2021/03/29 05:12:07;;;;;;;10.75;4.10;;;8.80;88.40;;;;;;5011954;28;20018;-64
2021/03/29 05:14:32;;;;;;;9.60;4.28;;;8.80;88.40;;;;;;5005286;28;20049;-63
2021/03/29 05:16:58;;;;;;;12.00;4.10;;;8.80;88.40;;;;;;5000663;28;20064;-63
2021/03/29 05:19:24;;;;;;;13.15;4.93;;;8.80;88.40;;;;;;5001286;28;20525;-63
2021/03/29 05:21:50;;;;;;;8.38;4.13;;;8.80;88.40;;;;;;4991651;28;20030;-63
2021/03/29 05:24:16;;;;;;;9.45;3.92;;;8.80;88.60;;;;;;5011303;28;20060;-63
2021/03/29 05:26:41;;;;;;;9.35;4.30;;;8.80;88.70;;;;;;5011861;28;20058;-63
2021/03/29 05:29:07;;;;;;;10.23;4.28;;;8.80;88.70;;;;;;5010178;28;20030;-64
2021/03/29 05:31:40;;;;;;;10.68;3.88;;;8.80;88.90;;;;;;5013275;28;20168;-64
2021/03/29 05:34:11;;;;;;;9.13;4.20;;;8.70;88.90;;;;;;5014994;28;20080;-64
2021/03/29 05:36:38;;;;;;;8.60;3.97;;;8.70;89.00;;;;;;5014744;28;20028;-64
2021/03/29 05:39:04;;;;;;;9.05;3.90;;;8.80;89.00;;;;;;5014695;28;20026;-64
2021/03/29 05:41:30;;;;;;;10.15;4.50;;;8.80;88.90;;;;;;5015114;28;20057;-63
2021/03/29 05:43:56;;;;;;;11.82;4.40;;;8.80;89.00;;;;;;5015379;28;20018;-63
2021/03/29 05:46:22;;;;;;;12.90;5.38;;;8.80;88.90;;;;;;5015947;28;20033;-63
2021/03/29 05:48:48;;;;;;;12.75;4.93;;;8.90;88.80;;;;;;4997078;28;20030;-65
2021/03/29 05:51:14;;;;;;;10.80;4.22;;;8.90;88.60;;;;;;4995922;28;20113;-64
2021/03/29 05:53:39;;;;;;;11.20;4.45;;;9.00;88.50;;;;;;5007631;28;20060;-64
2021/03/29 05:56:07;;;;;;;8.77;4.00;;;9.10;88.40;;;;;;5006825;28;20909;-64
2021/03/29 06:01:46;;;;;;;9.77;4.00;;;9.20;88.10;;;;;;4994581;28;20498;-63
2021/03/29 06:04:35;;;;;;;11.13;4.38;;;9.30;87.90;;;;;;5010371;28;20032;-63
2021/03/29 06:07:14;;;;;;;8.85;3.67;;;9.30;87.60;;;;;;5010858;28;20157;-64
2021/03/29 06:09:41;;;;;;;12.57;3.70;;;9.40;87.50;;;;;;4994085;28;20030;-63
2021/03/29 06:12:12;;;;;;;8.82;4.07;;;9.40;87.20;;;;;;4993999;28;20077;-64
2021/03/29 06:14:38;;;;;;;11.55;4.20;;;9.50;87.10;;;;;;4998907;28;20028;-64
2021/03/29 06:17:06;;;;;;;10.20;3.97;;;9.50;86.90;;;;;;4999950;28;20026;-63
2021/03/29 06:19:44;;;;;;;10.30;4.40;;;9.60;86.80;;;;;;5001908;28;20466;-62
2021/03/29 06:22:15;;;;;;;8.35;3.60;;;9.60;86.60;;;;;;5005966;28;20030;-63
2021/03/29 06:25:15;;;;;;;13.90;4.13;;;9.60;86.50;;;;;;4996075;28;20032;-63
2021/03/29 06:27:49;;;;;;;15.05;4.60;;;9.70;86.50;;;;;;5014876;28;20494;-64
2021/03/29 06:30:25;;;;;;;9.32;4.35;;;9.70;86.60;;;;;;5014300;28;20034;-64
2021/03/29 06:32:53;;;;;;;10.57;3.97;;;9.80;86.90;;;;;;5013428;28;20378;-63
2021/03/29 06:35:21;;;;;;;11.02;4.10;;;9.80;86.70;;;;;;5007672;28;20010;-65
2021/03/29 06:37:46;;;;;;;9.95;3.85;;;9.80;86.40;;;;;;4994338;28;20034;-64
2021/03/29 06:40:13;;;;;;;10.93;4.45;;;9.80;86.20;;;;;;4996002;28;20077;-63
2021/03/29 06:42:39;;;;;;;10.10;3.80;;;9.80;86.30;;;;;;5008608;28;20367;-63
2021/03/29 06:45:16;;;;;;;9.15;3.75;;;9.80;86.20;;;;;;5005279;28;20387;-64
2021/03/29 06:47:42;;;;;;;9.88;4.20;;;9.80;86.20;;;;;;5006476;28;20054;-64
2021/03/29 06:50:25;;;;;;;11.63;4.55;;;9.80;86.20;;;;;;5000092;28;20026;-65
2021/03/29 06:52:51;;;;;;;8.00;3.95;;;9.90;86.40;;;;;;5002518;28;20026;-64
2021/03/29 06:55:26;;;;;;;7.47;3.70;;;9.90;86.50;;;;;;5010716;28;20036;-63
2021/03/29 06:58:05;;;;;;;7.45;4.00;;;9.90;86.50;;;;;;4994224;28;20026;-63
2021/03/29 07:00:36;;;;;;;9.60;4.00;;;9.90;86.80;;;;;;5003156;28;20125;-62
2021/03/29 07:03:07;;;;;;;9.50;4.68;;;9.90;86.60;;;;;;5007619;28;20025;-63
2021/03/29 07:05:33;;;;;;;8.23;3.83;;;10.00;86.80;;;;;;5012748;28;20474;-62
2021/03/29 07:08:03;;;;;;;7.72;4.25;;;10.10;86.70;;;;;;5007224;28;20041;-66
2021/03/29 07:10:29;;;;;;;10.55;4.05;;;10.10;86.50;;;;;;4993155;28;20019;-67
2021/03/29 07:12:56;;;;;;;9.57;4.78;;;10.20;86.40;;;;;;4992244;28;20546;-68
2021/03/29 07:15:22;;;;;;;10.30;4.30;;;10.20;86.30;;;;;;4993971;28;20100;-68
2021/03/29 07:17:49;;;;;;;11.13;4.57;;;10.30;86.30;;;;;;4992984;28;20058;-65
2021/03/29 07:20:24;;;;;;;8.48;3.88;;;10.40;86.00;;;;;;4992675;28;20023;-65
2021/03/29 07:22:49;;;;;;;10.43;3.90;;;10.40;85.70;;;;;;4991632;28;20051;-67
2021/03/29 07:25:16;;;;;;;10.15;3.67;;;10.50;85.90;;;;;;4993416;28;20129;-67
2021/03/29 07:27:46;;;;;;;12.07;3.75;;;10.50;85.80;;;;;;5027601;28;20044;-69
2021/03/29 07:30:15;;;;;;;8.80;3.72;;;10.60;85.10;;;;;;5032184;28;20108;-67
2021/03/29 07:32:51;;;;;;;9.48;3.78;;;10.70;85.00;;;;;;5033240;28;20072;-69
2021/03/29 07:35:18;;;;;;;9.30;3.92;;;10.70;84.60;;;;;;5032221;28;20025;-66
2021/03/29 07:37:56;;;;;;;10.70;4.38;;;10.80;84.20;;;;;;5033102;28;20112;-64
2021/03/29 07:40:22;;;;;;;8.57;3.70;;;10.90;84.10;;;;;;5027570;28;20470;-64
2021/03/29 07:42:49;;;;;;;9.90;3.97;;;10.90;83.90;;;;;;5012802;28;20091;-64
2021/03/29 07:45:17;;;;;;;10.95;4.40;;;11.00;83.90;;;;;;5011820;28;20026;-63
2021/03/29 07:47:51;;;;;;;13.93;4.28;;;11.10;83.50;;;;;;5011971;28;20085;-63
2021/03/29 07:50:29;;;;;;;10.43;3.92;;;11.10;83.10;;;;;;5012755;28;20026;-64
2021/03/29 07:53:00;;;;;;;8.88;3.63;;;11.10;82.90;;;;;;5012774;28;20025;-64
2021/03/29 07:55:31;;;;;;;9.07;3.42;;;11.20;83.80;;;;;;5011760;28;20414;-62
2021/03/29 07:57:56;;;;;;;9.13;3.88;;;11.40;83.00;;;;;;4996871;28;20372;-65
2021/03/29 08:00:25;;;;;;;7.82;3.60;;;11.40;82.40;;;;;;4993001;28;20046;-62
2021/03/29 08:02:58;;;;;;;9.98;3.65;;;11.50;82.20;;;;;;4992214;28;20050;-64
2021/03/29 08:05:36;;;;;;;11.30;3.90;;;11.50;82.40;;;;;;5011612;28;20034;-64
2021/03/29 08:08:03;;;;;;;10.63;3.88;;;11.50;82.30;;;;;;5010343;28;20034;-64
2021/03/29 08:10:55;;;;;;;10.57;4.35;;;11.60;81.90;;;;;;5007677;28;20387;-64
2021/03/29 08:13:41;;;;;;;10.15;5.13;;;11.60;81.50;;;;;;4992753;28;20395;-64
2021/03/29 08:16:09;;;;;;;11.57;3.70;;;11.60;82.10;;;;;;4992220;28;20038;-63
2021/03/29 08:19:17;;;;;;;14.38;4.05;;;11.60;81.50;;;;;;5000035;28;20033;-63
2021/03/29 08:21:51;;;;;;;9.77;4.55;;;11.70;81.30;;;;;;4995691;28;20026;-63
2021/03/29 08:24:30;;;;;;;12.25;3.80;;;11.70;81.20;;;;;;4993124;28;20022;-64
2021/03/29 08:27:01;;;;;;;10.70;4.18;;;11.80;81.40;;;;;;5000025;28;20068;-62
2021/03/29 08:29:38;;;;;;;12.57;4.10;;;11.80;81.10;;;;;;5006682;28;20037;-63
2021/03/29 08:32:18;;;;;;;12.25;4.45;;;11.80;81.00;;;;;;5009525;28;20087;-65
2021/03/29 08:35:08;;;;;;;8.60;4.53;;;11.80;80.70;;;;;;5001088;28;20092;-65
2021/03/29 08:37:48;;;;;;;11.38;4.50;;;11.90;80.90;;;;;;4995061;28;20037;-68
2021/03/29 08:40:21;;;;;;;11.98;4.65;;;11.90;80.90;;;;;;5005492;28;20039;-65
2021/03/29 08:42:49;;;;;;;8.57;4.00;;;12.00;80.90;;;;;;4995073;28;20501;-66
2021/03/29 08:45:20;;;;;;;12.57;4.03;;;12.10;80.70;;;;;;5000314;28;20023;-63
2021/03/29 08:47:48;;;;;;;13.52;4.20;;;12.10;80.30;;;;;;4998979;28;20037;-64
2021/03/29 08:50:24;;;;;;;12.48;4.72;;;12.10;80.30;;;;;;4993436;28;20022;-64
2021/03/29 08:52:59;;;;;;;14.15;4.55;;;12.20;80.00;;;;;;4990972;28;20027;-64
2021/03/29 08:55:30;;;;;;;9.52;4.85;;;12.20;80.20;;;;;;4992710;28;20041;-63
2021/03/29 08:57:56;;;;;;;10.17;4.07;;;12.40;80.30;;;;;;4991871;28;20077;-64
2021/03/29 09:00:27;;;;;;;6.00;3.45;;;12.50;80.00;;;;;;4992254;28;20155;-63
2021/03/29 09:02:53;;;;;;;10.93;3.90;;;12.60;79.80;;;;;;4992009;28;20034;-64
2021/03/29 09:05:21;;;;;;;8.32;3.50;;;12.70;79.40;;;;;;4991399;28;20038;-65
2021/03/29 09:07:48;;;;;;;9.15;4.80;;;12.70;79.00;;;;;;5015010;28;20037;-64
2021/03/29 09:10:17;;;;;;;9.30;3.75;;;12.80;78.80;;;;;;5014185;28;20014;-67
2021/03/29 09:12:44;;;;;;;6.35;3.58;;;12.80;78.30;;;;;;5014297;28;20111;-67
2021/03/29 09:15:17;;;;;;;7.20;3.63;;;12.80;77.60;;;;;;4996600;28;20030;-65
2021/03/29 09:17:43;;;;;;;12.35;3.80;;;13.00;77.60;;;;;;5010520;28;20393;-66
2021/03/29 09:20:24;;;;;;;8.63;3.78;;;13.00;77.30;;;;;;5014455;28;20030;-64
2021/03/29 09:22:50;;;;;;;8.82;3.40;;;13.10;76.80;;;;;;5015294;28;20022;-63
2021/03/29 09:25:35;;;;;;;9.68;3.78;;;13.20;76.20;;;;;;5016188;28;20410;-64
2021/03/29 09:28:16;;;;;;;7.63;3.78;;;13.30;75.20;;;;;;5015172;28;20390;-63
2021/03/29 09:30:42;;;;;;;6.87;3.23;;;13.40;74.20;;;;;;5016082;28;20018;-64
2021/03/29 09:33:10;;;;;;;11.25;4.15;;;13.40;73.90;;;;;;5015101;28;20018;-65
2021/03/29 09:35:35;;;;;;;8.10;3.45;;;13.40;72.90;;;;;;5016311;28;20026;-65
2021/03/29 09:38:01;;;;;;;13.20;3.42;;;13.50;72.60;;;;;;5014654;28;20121;-66
2021/03/29 09:40:36;;;;;;;11.05;3.45;;;13.50;72.00;;;;;;5015218;28;20081;-65
2021/03/29 09:43:02;;;;;;;7.78;3.40;;;13.50;71.10;;;;;;5015684;28;20089;-65
2021/03/29 09:45:31;;;;;;;9.35;3.38;;;13.50;71.20;;;;;;5015904;28;20478;-64
2021/03/29 09:48:09;;;;;;;10.52;3.70;;;13.60;71.30;;;;;;5014719;28;20038;-65
2021/03/29 09:50:36;;;;;;;9.95;3.33;;;13.70;70.40;;;;;;5015653;28;20478;-64
2021/03/29 09:53:20;;;;;;;8.38;3.17;;;13.70;69.80;;;;;;5015208;28;20033;-65
2021/03/29 09:55:54;;;;;;;9.40;3.00;;;13.80;70.10;;;;;;5014788;28;20018;-63
2021/03/29 09:58:27;;;;;;;4.93;3.05;;;13.90;69.50;;;;;;5015621;28;20026;-64
2021/03/29 10:00:55;;;;;;;5.30;3.28;;;13.90;69.40;;;;;;5012511;28;20046;-64
2021/03/29 10:03:22;;;;;;;12.43;4.18;;;13.90;69.30;;;;;;5015664;28;20026;-64
2021/03/29 10:05:49;;;;;;;9.30;3.05;;;14.00;68.50;;;;;;5015128;28;20080;-64
2021/03/29 10:08:28;;;;;;;8.00;3.80;;;14.10;68.40;;;;;;5014692;28;20044;-63
2021/03/29 10:11:06;;;;;;;10.85;3.53;;;14.20;67.10;;;;;;5014839;28;20034;-64
2021/03/29 10:13:37;;;;;;;11.07;3.58;;;14.20;66.90;;;;;;5014705;28;20076;-63
2021/03/29 10:16:20;;;;;;;10.13;3.75;;;14.30;66.80;;;;;;5014908;28;20025;-64
2021/03/29 10:18:47;;;;;;;10.35;4.20;;;14.40;67.10;;;;;;5014984;28;20036;-63
2021/03/29 10:21:13;;;;;;;9.48;3.63;;;14.50;66.60;;;;;;5014316;28;20497;-64
2021/03/29 10:23:41;;;;;;;9.63;3.55;;;14.60;66.40;;;;;;5015639;28;20034;-64
2021/03/29 10:26:20;;;;;;;16.08;4.63;;;14.60;66.10;;;;;;5014829;28;20053;-64
2021/03/29 10:29:03;;;;;;;10.63;4.18;;;14.70;65.70;;;;;;5014095;28;20092;-63
2021/03/29 10:31:32;;;;;;;14.48;4.25;;;14.70;66.10;;;;;;5014997;28;20026;-65
2021/03/29 10:33:58;;;;;;;10.13;3.45;;;14.70;64.60;;;;;;5014438;28;20026;-64
2021/03/29 10:36:26;;;;;;;6.97;3.20;;;14.80;64.90;;;;;;5014229;28;20032;-64
2021/03/29 10:38:53;;;;;;;9.93;3.72;;;14.90;64.80;;;;;;5014320;28;20033;-62
2021/03/29 10:41:19;;;;;;;11.85;3.95;;;14.90;64.60;;;;;;5013849;28;20456;-62
2021/03/29 10:43:45;;;;;;;7.85;3.70;;;14.90;64.40;;;;;;5014957;28;20490;-63
2021/03/29 10:46:10;;;;;;;8.13;3.80;;;15.00;63.90;;;;;;5014552;28;20022;-64
2021/03/29 10:48:36;;;;;;;8.80;3.80;;;15.00;63.00;;;;;;5013503;28;20121;-63
2021/03/29 10:51:03;;;;;;;8.18;3.60;;;15.00;62.20;;;;;;5014149;28;20060;-63
2021/03/29 10:53:29;;;;;;;9.35;3.80;;;15.10;62.30;;;;;;5014478;28;20026;-64
2021/03/29 10:55:54;;;;;;;8.30;3.45;;;15.10;61.90;;;;;;5013355;28;20547;-64
2021/03/29 10:58:20;;;;;;;8.48;3.88;;;15.10;61.70;;;;;;5014661;28;20082;-65
2021/03/29 11:00:46;;;;;;;9.20;3.45;;;15.20;62.10;;;;;;5013984;28;20069;-63
2021/03/29 11:03:11;;;;;;;11.05;4.53;;;15.20;62.70;;;;;;5012407;28;20050;-64
2021/03/29 11:05:37;;;;;;;9.60;3.83;;;15.30;62.60;;;;;;5014314;28;20099;-65
2021/03/29 11:08:03;;;;;;;7.13;4.20;;;15.40;62.50;;;;;;5014002;28;20030;-65
2021/03/29 11:10:29;;;;;;;7.75;3.50;;;15.50;62.20;;;;;;5013265;28;20055;-63
2021/03/29 11:12:54;;;;;;;8.40;3.33;;;15.50;61.10;;;;;;5013751;28;20057;-64
2021/03/29 11:15:20;;;;;;;8.93;3.85;;;15.50;61.30;;;;;;5013990;28;20056;-64
2021/03/29 11:17:46;;;;;;;9.13;3.92;;;15.60;60.60;;;;;;5013003;28;20024;-63
2021/03/29 11:20:12;;;;;;;10.05;3.60;;;15.60;60.10;;;;;;5014095;28;20025;-63
2021/03/29 11:22:37;;;;;;;9.73;3.42;;;15.70;60.10;;;;;;5014158;28;20022;-63
2021/03/29 11:25:04;;;;;;;10.82;3.55;;;15.70;59.90;;;;;;5012780;28;20030;-63
2021/03/29 11:27:30;;;;;;;8.63;3.97;;;15.80;59.80;;;;;;5012555;28;20105;-65
2021/03/29 11:29:55;;;;;;;8.70;3.63;;;15.90;59.30;;;;;;5012835;28;20109;-65
2021/03/29 11:32:21;;;;;;;9.30;4.07;;;15.90;59.30;;;;;;5012237;28;20492;-64
2021/03/29 11:34:47;;;;;;;8.75;3.55;;;16.00;59.60;;;;;;5013426;28;20029;-62
2021/03/29 11:37:12;;;;;;;7.53;3.78;;;16.10;58.80;;;;;;5013825;28;20102;-63
2021/03/29 11:39:38;;;;;;;7.20;3.63;;;16.10;58.40;;;;;;5013028;28;20029;-63
2021/03/29 11:42:04;;;;;;;9.50;3.65;;;16.20;58.20;;;;;;5012944;28;20026;-65
2021/03/29 11:44:29;;;;;;;8.30;4.05;;;16.30;58.00;;;;;;5013793;28;20116;-63
2021/03/29 11:46:55;;;;;;;8.88;4.18;;;16.40;55.80;;;;;;5011214;28;20018;-63
2021/03/29 11:49:20;;;;;;;8.57;3.92;;;16.40;55.90;;;;;;5013392;28;20034;-62
2021/03/29 11:51:46;;;;;;;8.77;3.20;;;16.50;55.30;;;;;;5012266;28;20022;-63
2021/03/29 11:54:11;;;;;;;6.82;2.85;;;16.50;55.20;;;;;;5012130;28;20022;-64
2021/03/29 11:56:38;;;;;;;8.02;3.35;;;16.60;54.80;;;;;;5013288;28;20588;-64
2021/03/29 11:59:04;;;;;;;8.98;3.40;;;16.70;54.30;;;;;;5012269;28;20037;-63
2021/03/29 12:01:55;;;;;;;10.30;3.00;;;16.70;53.50;;;;;;5013199;28;20042;-65
2021/03/29 12:04:30;;;;;;;7.53;3.53;;;16.80;52.30;;;;;;5012147;28;20026;-62
2021/03/29 12:07:04;;;;;;;8.90;3.00;;;16.80;52.30;;;;;;5012255;28;20022;-63
2021/03/29 12:11:49;;;;;;;10.82;3.50;;;16.90;51.60;;;;;;5013387;28;20504;-63
2021/03/29 12:12:19;;;;;;;9.95;3.35;;;16.90;50.90;;;;;;5013010;28;20025;-66
2021/03/29 12:14:44;;;;;;;9.45;3.25;;;16.90;49.80;;;;;;5012380;28;20116;-63
2021/03/29 12:17:12;;;;;;;8.27;3.42;;;16.90;48.70;;;;;;5011477;28;20164;-64
2021/03/29 12:19:39;;;;;;;7.32;3.13;;;16.90;48.90;;;;;;5012908;28;20011;-64
2021/03/29 12:22:18;;;;;;;9.60;3.58;;;17.00;49.30;;;;;;5011941;28;20692;-64
2021/03/29 12:24:46;;;;;;;6.65;3.50;;;17.00;49.30;;;;;;5013011;28;20030;-63
2021/03/29 12:27:13;;;;;;;7.78;3.65;;;17.10;49.80;;;;;;5012165;28;20048;-65
2021/03/29 12:29:41;;;;;;;8.73;3.60;;;17.10;50.40;;;;;;5012738;28;20569;-63
2021/03/29 12:32:18;;;;;;;8.30;3.28;;;17.20;49.70;;;;;;5012477;28;20092;-64
2021/03/29 12:34:56;;;;;;;8.98;3.70;;;17.30;49.80;;;;;;5012181;28;20030;-64
2021/03/29 12:37:24;;;;;;;6.72;3.40;;;17.30;50.30;;;;;;5012757;28;20022;-64
2021/03/29 12:40:09;;;;;;;9.32;4.03;;;17.40;50.20;;;;;;5012351;28;20026;-64
2021/03/29 12:42:39;;;;;;;10.57;3.65;;;17.40;49.80;;;;;;5011359;28;20029;-66
2021/03/29 12:45:06;;;;;;;8.00;3.65;;;17.60;49.80;;;;;;5012298;28;20466;-65
2021/03/29 12:47:33;;;;;;;5.45;3.30;;;17.70;49.60;;;;;;5012586;28;20057;-66
2021/03/29 12:50:10;;;;;;;7.30;3.63;;;17.80;49.10;;;;;;5011537;28;20068;-65
2021/03/29 12:52:37;;;;;;;7.28;3.20;;;17.90;48.00;;;;;;5012751;28;20084;-66
2021/03/29 12:55:06;;;;;;;7.97;3.00;;;17.90;46.70;;;;;;5011620;28;20106;-66
2021/03/29 12:57:31;;;;;;;7.43;3.38;;;17.90;46.00;;;;;;5012593;28;20448;-65
2021/03/29 12:59:57;;;;;;;5.85;3.67;;;17.90;45.90;;;;;;5011974;28;20113;-65
2021/03/29 13:02:22;;;;;;;6.32;3.20;;;17.90;45.90;;;;;;5011911;28;20018;-65